Ana Sayfa
METAR-TAF:

METAR-TAF

Havaalanları :

Punta Cana, Dominik Cumhuriyeti

Enlem: 18-34N, Boylam: 068-22W, yükseklik: 12 m

Güncel hava durumu gözlemi

Rapor saat 07:00 UTC de 26 dakika önce yapıldı.
Rüzgar doğudan 5 kt
Sıcaklık 28°C
Nem 79%
Basınç 1014 hPa
Görüş mesafesi 10 km veya daha fazla
1600 ft yükseklikte az bulutlu

METAR: MDPC 160700Z 09005KT 9999 FEW016 28/24 Q1014

Saat: 03:26 (07:26 UTC)

Tahmin

Rapor saat 04:00 UTC de 3 saat ve 26 dakika önce yapıldı.
Ayın 16'si saat 06 UTC'den ayın 17'si saat 06 UTC'ye kadar geçerli Tahmin
Rüzgar doğu/kuzeydoğudan 9 kt
Görüş mesafesi 10 km veya daha fazla
1700 ft yükseklikte az bulutlu
Olasılık 30%
ayın 16'si saat 07 UTC'den ayın 16'si saat 12 UTC'ye kadar
Görüş mesafesi: 8000 m
1600 ft yükseklikte parçalı çok bulutlu
7000 ft yükseklikte parçalı bulutlu
hafif yağmur,

TAF: MDPC 160400Z 1606/1706 06009KT 9999 FEW017 PROB30 1607/1612 8000 -RA BKN016 SCT070

4.000'den fazla havaalanı için hava durumu gözlemleri ve tahminleri (METAR ve TAF raporları).

Kullanılabilir istasyonlar harita üzerinde sarı ve kırmızı noktalarla gösterilir.

İstasyonun adını görmek için fareyi noktanın üzerinde gezdirin.

Sonrasında hava gözlem ve tahminlerini görmek için tıklayın.

Haritayı değiştirmek için: yaklaştırmak için siyah artı işaretli yeşil düğmeye ve uzaklaştırmak için de eksi işaretli düğmeye hızla tıklayın; bitişik haritalar için yeşil okları kullanın.


METAR-TAF: